sensor_id;sensor_type;location;lat;lon;timestamp;pressure;altitude;pressure_sealevel;temperature;humidity
64544;BME280;50936;51.660;5.616;2024-02-21T00:02:17;101871.81;;;12.44;88.79
64544;BME280;50936;51.660;5.616;2024-02-21T00:05:05;101883.97;;;12.37;88.81
64544;BME280;50936;51.660;5.616;2024-02-21T00:07:52;101864.03;;;12.38;88.77
64544;BME280;50936;51.660;5.616;2024-02-21T00:10:40;101861.25;;;12.39;88.94
64544;BME280;50936;51.660;5.616;2024-02-21T00:13:27;101856.19;;;12.33;89.01
64544;BME280;50936;51.660;5.616;2024-02-21T00:16:14;101858.00;;;12.32;89.45
64544;BME280;50936;51.660;5.616;2024-02-21T00:19:03;101863.84;;;12.41;89.00
64544;BME280;50936;51.660;5.616;2024-02-21T00:21:50;101865.59;;;12.42;88.86
64544;BME280;50936;51.660;5.616;2024-02-21T00:24:37;101862.47;;;12.33;88.97
64544;BME280;50936;51.660;5.616;2024-02-21T00:27:24;101864.41;;;12.31;89.09
64544;BME280;50936;51.660;5.616;2024-02-21T00:30:12;101861.72;;;12.31;89.37
64544;BME280;50936;51.660;5.616;2024-02-21T00:32:59;101840.03;;;12.31;89.28
64544;BME280;50936;51.660;5.616;2024-02-21T00:35:47;101834.16;;;12.39;88.95
64544;BME280;50936;51.660;5.616;2024-02-21T00:38:34;101822.25;;;12.27;89.09
64544;BME280;50936;51.660;5.616;2024-02-21T00:41:21;101815.66;;;12.31;88.85
64544;BME280;50936;51.660;5.616;2024-02-21T00:44:08;101815.47;;;12.35;88.68
64544;BME280;50936;51.660;5.616;2024-02-21T00:46:57;101812.19;;;12.29;88.69
64544;BME280;50936;51.660;5.616;2024-02-21T00:49:44;101808.69;;;12.27;88.60
64544;BME280;50936;51.660;5.616;2024-02-21T00:52:31;101810.06;;;12.35;88.39
64544;BME280;50936;51.660;5.616;2024-02-21T00:55:18;101799.78;;;12.25;88.47
64544;BME280;50936;51.660;5.616;2024-02-21T00:58:06;101799.13;;;12.22;88.55
64544;BME280;50936;51.660;5.616;2024-02-21T01:00:53;101799.19;;;12.20;88.63
64544;BME280;50936;51.660;5.616;2024-02-21T01:03:40;101802.47;;;12.11;88.81
64544;BME280;50936;51.660;5.616;2024-02-21T01:06:28;101800.72;;;12.10;89.07
64544;BME280;50936;51.660;5.616;2024-02-21T01:09:15;101797.22;;;12.08;89.26
64544;BME280;50936;51.660;5.616;2024-02-21T01:12:03;101803.03;;;12.16;89.07
64544;BME280;50936;51.660;5.616;2024-02-21T01:14:50;101806.91;;;12.12;89.36
64544;BME280;50936;51.660;5.616;2024-02-21T01:17:37;101804.41;;;12.09;89.47
64544;BME280;50936;51.660;5.616;2024-02-21T01:20:27;101806.31;;;12.07;89.26
64544;BME280;50936;51.660;5.616;2024-02-21T01:23:14;101794.44;;;12.09;89.27
64544;BME280;50936;51.660;5.616;2024-02-21T01:26:02;101788.16;;;12.09;89.38
64544;BME280;50936;51.660;5.616;2024-02-21T01:28:50;101788.63;;;12.16;89.10
64544;BME280;50936;51.660;5.616;2024-02-21T01:31:38;101782.94;;;12.20;88.73
64544;BME280;50936;51.660;5.616;2024-02-21T01:34:25;101783.53;;;12.25;88.60
64544;BME280;50936;51.660;5.616;2024-02-21T01:37:16;101773.28;;;12.30;88.08
64544;BME280;50936;51.660;5.616;2024-02-21T01:40:03;101771.63;;;12.28;87.89
64544;BME280;50936;51.660;5.616;2024-02-21T01:42:52;101764.59;;;12.25;87.94
64544;BME280;50936;51.660;5.616;2024-02-21T01:45:41;101780.25;;;12.20;88.24
64544;BME280;50936;51.660;5.616;2024-02-21T01:48:29;101745.81;;;12.22;87.93
64544;BME280;50936;51.660;5.616;2024-02-21T01:51:17;101750.84;;;12.28;88.00
64544;BME280;50936;51.660;5.616;2024-02-21T01:54:04;101749.97;;;12.28;88.12
64544;BME280;50936;51.660;5.616;2024-02-21T01:56:52;101739.81;;;12.31;87.84
64544;BME280;50936;51.660;5.616;2024-02-21T01:59:39;101742.13;;;12.23;88.05
64544;BME280;50936;51.660;5.616;2024-02-21T02:02:27;101731.50;;;12.20;87.87
64544;BME280;50936;51.660;5.616;2024-02-21T02:05:15;101748.69;;;12.19;87.99
64544;BME280;50936;51.660;5.616;2024-02-21T02:08:04;101742.50;;;12.17;88.13
64544;BME280;50936;51.660;5.616;2024-02-21T02:10:52;101749.28;;;12.24;88.21
64544;BME280;50936;51.660;5.616;2024-02-21T02:13:39;101747.75;;;12.20;88.16
64544;BME280;50936;51.660;5.616;2024-02-21T02:16:26;101741.25;;;12.23;87.72
64544;BME280;50936;51.660;5.616;2024-02-21T02:19:14;101746.16;;;12.16;87.79
64544;BME280;50936;51.660;5.616;2024-02-21T02:22:17;101731.66;;;12.17;87.89
64544;BME280;50936;51.660;5.616;2024-02-21T02:25:09;101724.81;;;12.26;87.72
64544;BME280;50936;51.660;5.616;2024-02-21T02:27:56;101729.38;;;12.25;87.64
64544;BME280;50936;51.660;5.616;2024-02-21T02:30:43;101720.09;;;12.29;86.87
64544;BME280;50936;51.660;5.616;2024-02-21T02:33:31;101717.47;;;12.28;86.76
64544;BME280;50936;51.660;5.616;2024-02-21T02:36:18;101717.66;;;12.25;86.83
64544;BME280;50936;51.660;5.616;2024-02-21T02:39:06;101705.78;;;12.27;86.86
64544;BME280;50936;51.660;5.616;2024-02-21T02:41:53;101702.47;;;12.37;86.29
64544;BME280;50936;51.660;5.616;2024-02-21T02:44:40;101696.47;;;12.31;86.16
64544;BME280;50936;51.660;5.616;2024-02-21T02:47:28;101698.78;;;12.23;86.43
64544;BME280;50936;51.660;5.616;2024-02-21T02:50:15;101681.00;;;12.19;86.50
64544;BME280;50936;51.660;5.616;2024-02-21T02:53:02;101687.94;;;12.23;86.26
64544;BME280;50936;51.660;5.616;2024-02-21T02:55:50;101680.22;;;12.17;86.53
64544;BME280;50936;51.660;5.616;2024-02-21T02:58:37;101688.53;;;12.14;86.50
64544;BME280;50936;51.660;5.616;2024-02-21T03:01:24;101685.44;;;12.06;86.97
64544;BME280;50936;51.660;5.616;2024-02-21T03:04:11;101682.81;;;12.04;86.95
64544;BME280;50936;51.660;5.616;2024-02-21T03:06:59;101683.50;;;12.08;86.95
64544;BME280;50936;51.660;5.616;2024-02-21T03:09:46;101671.91;;;12.06;86.94
64544;BME280;50936;51.660;5.616;2024-02-21T03:12:33;101675.97;;;12.13;86.87
64544;BME280;50936;51.660;5.616;2024-02-21T03:15:20;101665.13;;;12.13;86.62
64544;BME280;50936;51.660;5.616;2024-02-21T03:18:08;101666.28;;;12.23;86.11
64544;BME280;50936;51.660;5.616;2024-02-21T03:20:56;101672.28;;;12.14;86.35
64544;BME280;50936;51.660;5.616;2024-02-21T03:23:43;101666.50;;;12.20;86.22
64544;BME280;50936;51.660;5.616;2024-02-21T03:26:31;101656.63;;;12.19;85.98
64544;BME280;50936;51.660;5.616;2024-02-21T03:29:18;101647.72;;;12.03;85.97
64544;BME280;50936;51.660;5.616;2024-02-21T03:32:05;101656.81;;;12.02;86.29
64544;BME280;50936;51.660;5.616;2024-02-21T03:34:53;101632.34;;;12.03;86.63
64544;BME280;50936;51.660;5.616;2024-02-21T03:37:40;101632.66;;;12.13;86.30
64544;BME280;50936;51.660;5.616;2024-02-21T03:40:27;101633.31;;;12.17;86.14
64544;BME280;50936;51.660;5.616;2024-02-21T03:43:15;101630.78;;;12.28;85.63
64544;BME280;50936;51.660;5.616;2024-02-21T03:46:02;101625.84;;;12.35;85.16
64544;BME280;50936;51.660;5.616;2024-02-21T03:48:49;101612.50;;;12.31;84.25
64544;BME280;50936;51.660;5.616;2024-02-21T03:51:36;101615.41;;;12.28;84.44
64544;BME280;50936;51.660;5.616;2024-02-21T03:54:24;101613.88;;;12.24;84.65
64544;BME280;50936;51.660;5.616;2024-02-21T03:57:11;101628.00;;;12.29;84.70
64544;BME280;50936;51.660;5.616;2024-02-21T03:59:58;101618.41;;;12.24;84.57
64544;BME280;50936;51.660;5.616;2024-02-21T04:02:46;101609.97;;;12.28;84.69
64544;BME280;50936;51.660;5.616;2024-02-21T04:05:33;101614.34;;;12.31;84.41
64544;BME280;50936;51.660;5.616;2024-02-21T04:08:21;101616.47;;;12.26;84.37
64544;BME280;50936;51.660;5.616;2024-02-21T04:11:09;101609.13;;;12.28;84.29
64544;BME280;50936;51.660;5.616;2024-02-21T04:13:56;101618.50;;;12.37;84.41
64544;BME280;50936;51.660;5.616;2024-02-21T04:16:43;101616.06;;;12.46;83.86
64544;BME280;50936;51.660;5.616;2024-02-21T04:19:31;101609.19;;;12.41;83.72
64544;BME280;50936;51.660;5.616;2024-02-21T04:22:18;101626.97;;;12.45;83.77
64544;BME280;50936;51.660;5.616;2024-02-21T04:25:06;101610.19;;;12.25;83.92
64544;BME280;50936;51.660;5.616;2024-02-21T04:27:53;101609.38;;;12.38;84.10
64544;BME280;50936;51.660;5.616;2024-02-21T04:30:40;101611.13;;;12.39;84.19
64544;BME280;50936;51.660;5.616;2024-02-21T04:33:28;101608.72;;;12.34;83.99
64544;BME280;50936;51.660;5.616;2024-02-21T04:36:15;101599.38;;;12.25;84.42
64544;BME280;50936;51.660;5.616;2024-02-21T04:39:02;101604.88;;;12.24;84.66
64544;BME280;50936;51.660;5.616;2024-02-21T04:41:49;101607.84;;;12.33;84.63
64544;BME280;50936;51.660;5.616;2024-02-21T04:44:36;101605.25;;;12.32;84.49
64544;BME280;50936;51.660;5.616;2024-02-21T04:47:24;101603.03;;;12.24;84.74
64544;BME280;50936;51.660;5.616;2024-02-21T04:50:12;101603.78;;;12.26;84.79
64544;BME280;50936;51.660;5.616;2024-02-21T04:53:00;101600.13;;;12.27;84.91
64544;BME280;50936;51.660;5.616;2024-02-21T04:55:47;101586.59;;;12.27;84.58
64544;BME280;50936;51.660;5.616;2024-02-21T04:58:38;101580.94;;;12.30;84.66
64544;BME280;50936;51.660;5.616;2024-02-21T05:01:28;101587.44;;;12.28;84.47
64544;BME280;50936;51.660;5.616;2024-02-21T05:04:15;101582.81;;;12.30;84.74
64544;BME280;50936;51.660;5.616;2024-02-21T05:07:02;101582.09;;;12.41;84.26
64544;BME280;50936;51.660;5.616;2024-02-21T05:09:50;101566.63;;;12.43;83.93
64544;BME280;50936;51.660;5.616;2024-02-21T05:12:37;101570.66;;;12.50;83.73
64544;BME280;50936;51.660;5.616;2024-02-21T05:15:25;101572.00;;;12.57;83.27
64544;BME280;50936;51.660;5.616;2024-02-21T05:18:12;101570.84;;;12.47;83.43
64544;BME280;50936;51.660;5.616;2024-02-21T05:21:01;101571.34;;;12.54;83.67
64544;BME280;50936;51.660;5.616;2024-02-21T05:23:48;101573.28;;;12.51;83.72
64544;BME280;50936;51.660;5.616;2024-02-21T05:26:35;101571.34;;;12.54;83.56
64544;BME280;50936;51.660;5.616;2024-02-21T05:29:22;101567.38;;;12.45;83.73
64544;BME280;50936;51.660;5.616;2024-02-21T05:32:09;101543.75;;;12.47;83.78
64544;BME280;50936;51.660;5.616;2024-02-21T05:34:59;101547.03;;;12.52;83.42
64544;BME280;50936;51.660;5.616;2024-02-21T05:37:46;101541.06;;;12.47;83.24
64544;BME280;50936;51.660;5.616;2024-02-21T05:40:35;101549.50;;;12.42;83.68
64544;BME280;50936;51.660;5.616;2024-02-21T05:43:22;101531.59;;;12.40;83.98
64544;BME280;50936;51.660;5.616;2024-02-21T05:46:09;101531.59;;;12.40;83.95
64544;BME280;50936;51.660;5.616;2024-02-21T05:48:56;101525.97;;;12.43;83.93
64544;BME280;50936;51.660;5.616;2024-02-21T05:51:44;101527.94;;;12.41;83.94
64544;BME280;50936;51.660;5.616;2024-02-21T05:54:32;101518.28;;;12.37;84.00
64544;BME280;50936;51.660;5.616;2024-02-21T05:57:19;101513.63;;;12.39;84.11
64544;BME280;50936;51.660;5.616;2024-02-21T06:00:07;101519.69;;;12.42;83.90
64544;BME280;50936;51.660;5.616;2024-02-21T06:03:00;101507.22;;;12.40;83.89
64544;BME280;50936;51.660;5.616;2024-02-21T06:05:48;101513.81;;;12.36;84.01
64544;BME280;50936;51.660;5.616;2024-02-21T06:08:35;101517.28;;;12.38;84.15
64544;BME280;50936;51.660;5.616;2024-02-21T06:11:23;101509.72;;;12.43;83.92
64544;BME280;50936;51.660;5.616;2024-02-21T06:14:10;101492.34;;;12.32;83.65
64544;BME280;50936;51.660;5.616;2024-02-21T06:16:57;101490.19;;;12.38;83.74
64544;BME280;50936;51.660;5.616;2024-02-21T06:19:45;101480.34;;;12.37;83.81
64544;BME280;50936;51.660;5.616;2024-02-21T06:22:32;101481.78;;;12.42;83.65
64544;BME280;50936;51.660;5.616;2024-02-21T06:25:21;101484.09;;;12.34;83.85
64544;BME280;50936;51.660;5.616;2024-02-21T06:28:08;101483.44;;;12.30;83.71
64544;BME280;50936;51.660;5.616;2024-02-21T06:30:56;101477.41;;;12.40;83.59
64544;BME280;50936;51.660;5.616;2024-02-21T06:33:43;101477.63;;;12.37;83.47
64544;BME280;50936;51.660;5.616;2024-02-21T06:36:30;101479.59;;;12.35;83.36
64544;BME280;50936;51.660;5.616;2024-02-21T06:39:18;101480.34;;;12.37;83.65
64544;BME280;50936;51.660;5.616;2024-02-21T06:42:05;101490.00;;;12.41;83.41
64544;BME280;50936;51.660;5.616;2024-02-21T06:44:52;101490.19;;;12.38;83.43
64544;BME280;50936;51.660;5.616;2024-02-21T06:47:40;101496.03;;;12.31;83.49
64544;BME280;50936;51.660;5.616;2024-02-21T06:50:27;101493.16;;;12.20;83.68
64544;BME280;50936;51.660;5.616;2024-02-21T06:53:14;101487.53;;;12.23;84.14
64544;BME280;50936;51.660;5.616;2024-02-21T06:56:02;101485.63;;;12.25;84.04
64544;BME280;50936;51.660;5.616;2024-02-21T06:58:50;101498.16;;;12.26;83.82
64544;BME280;50936;51.660;5.616;2024-02-21T07:01:37;101497.97;;;12.29;83.78
64544;BME280;50936;51.660;5.616;2024-02-21T07:04:25;101494.28;;;12.30;83.58
64544;BME280;50936;51.660;5.616;2024-02-21T07:07:12;101491.03;;;12.25;83.65
64544;BME280;50936;51.660;5.616;2024-02-21T07:10:00;101479.06;;;12.15;83.97
64544;BME280;50936;51.660;5.616;2024-02-21T07:12:47;101481.44;;;12.20;84.12
64544;BME280;50936;51.660;5.616;2024-02-21T07:15:35;101486.00;;;12.19;84.05
64544;BME280;50936;51.660;5.616;2024-02-21T07:18:23;101486.47;;;12.26;83.92
64544;BME280;50936;51.660;5.616;2024-02-21T07:21:12;101476.97;;;12.33;83.73
64544;BME280;50936;51.660;5.616;2024-02-21T07:23:59;101472.66;;;12.43;83.46
64544;BME280;50936;51.660;5.616;2024-02-21T07:26:46;101470.00;;;12.29;83.49
64544;BME280;50936;51.660;5.616;2024-02-21T07:29:34;101460.06;;;12.29;83.41
64544;BME280;50936;51.660;5.616;2024-02-21T07:32:21;101465.09;;;12.21;83.72
64544;BME280;50936;51.660;5.616;2024-02-21T07:35:08;101457.88;;;12.22;84.05
64544;BME280;50936;51.660;5.616;2024-02-21T07:37:59;101462.00;;;12.27;84.13
64544;BME280;50936;51.660;5.616;2024-02-21T07:40:46;101454.84;;;12.26;83.99
64544;BME280;50936;51.660;5.616;2024-02-21T07:43:34;101465.47;;;12.29;84.05
64544;BME280;50936;51.660;5.616;2024-02-21T07:46:21;101434.22;;;12.11;84.41
64544;BME280;50936;51.660;5.616;2024-02-21T07:49:08;101435.78;;;12.28;84.24
64544;BME280;50936;51.660;5.616;2024-02-21T07:51:56;101432.53;;;12.36;83.59
64544;BME280;50936;51.660;5.616;2024-02-21T07:54:43;101430.50;;;12.39;83.59
64544;BME280;50936;51.660;5.616;2024-02-21T07:57:30;101412.50;;;12.25;83.94
64544;BME280;50936;51.660;5.616;2024-02-21T08:00:18;101415.31;;;12.24;84.21
64544;BME280;50936;51.660;5.616;2024-02-21T08:03:08;101401.34;;;12.30;83.87
64544;BME280;50936;51.660;5.616;2024-02-21T08:05:56;101405.25;;;12.39;83.28
64544;BME280;50936;51.660;5.616;2024-02-21T08:08:43;101398.09;;;12.38;83.37
64544;BME280;50936;51.660;5.616;2024-02-21T08:11:30;101403.31;;;12.41;83.31
64544;BME280;50936;51.660;5.616;2024-02-21T08:14:18;101408.72;;;12.41;83.21
64544;BME280;50936;51.660;5.616;2024-02-21T08:17:07;101403.50;;;12.38;83.20
64544;BME280;50936;51.660;5.616;2024-02-21T08:19:54;101403.44;;;12.52;82.78
64544;BME280;50936;51.660;5.616;2024-02-21T08:22:41;101387.72;;;12.44;83.16
64544;BME280;50936;51.660;5.616;2024-02-21T08:25:29;101404.75;;;12.59;82.48
64544;BME280;50936;51.660;5.616;2024-02-21T08:28:16;101384.03;;;12.58;81.99
64544;BME280;50936;51.660;5.616;2024-02-21T08:31:03;101380.56;;;12.56;82.40
64544;BME280;50936;51.660;5.616;2024-02-21T08:33:50;101366.63;;;12.62;81.89
64544;BME280;50936;51.660;5.616;2024-02-21T08:36:38;101367.38;;;12.64;81.55
64544;BME280;50936;51.660;5.616;2024-02-21T08:39:25;101368.88;;;12.56;82.03
64544;BME280;50936;51.660;5.616;2024-02-21T08:42:15;101362.16;;;12.61;81.70
64544;BME280;50936;51.660;5.616;2024-02-21T08:45:03;101348.94;;;12.57;81.74
64544;BME280;50936;51.660;5.616;2024-02-21T08:47:50;101346.56;;;12.65;81.16
64544;BME280;50936;51.660;5.616;2024-02-21T08:50:38;101349.69;;;12.46;81.48
64544;BME280;50936;51.660;5.616;2024-02-21T08:53:25;101343.28;;;12.47;82.08
64544;BME280;50936;51.660;5.616;2024-02-21T08:56:13;101333.09;;;12.63;81.92
64544;BME280;50936;51.660;5.616;2024-02-21T08:59:01;101324.00;;;12.64;81.61
64544;BME280;50936;51.660;5.616;2024-02-21T09:01:49;101327.56;;;12.78;80.97
64544;BME280;50936;51.660;5.616;2024-02-21T09:04:36;101319.88;;;12.84;81.14
64544;BME280;50936;51.660;5.616;2024-02-21T09:07:24;101309.69;;;12.88;80.59
64544;BME280;50936;51.660;5.616;2024-02-21T09:10:11;101313.81;;;12.94;80.58
64544;BME280;50936;51.660;5.616;2024-02-21T09:12:58;101307.72;;;13.03;79.83
64544;BME280;50936;51.660;5.616;2024-02-21T09:15:45;101310.06;;;13.07;79.93
64544;BME280;50936;51.660;5.616;2024-02-21T09:18:34;101322.03;;;13.05;79.35
64544;BME280;50936;51.660;5.616;2024-02-21T09:21:21;101307.38;;;13.07;79.42
64544;BME280;50936;51.660;5.616;2024-02-21T09:24:08;101302.09;;;12.93;79.81
64544;BME280;50936;51.660;5.616;2024-02-21T09:26:55;101305.13;;;12.88;80.18
64544;BME280;50936;51.660;5.616;2024-02-21T09:29:42;101298.59;;;12.91;80.71
64544;BME280;50936;51.660;5.616;2024-02-21T09:32:30;101307.72;;;12.90;80.99
64544;BME280;50936;51.660;5.616;2024-02-21T09:35:17;101304.47;;;12.85;81.66
64544;BME280;50936;51.660;5.616;2024-02-21T09:38:04;101302.75;;;12.71;83.28
64544;BME280;50936;51.660;5.616;2024-02-21T09:41:16;101297.97;;;12.62;84.47
64544;BME280;50936;51.660;5.616;2024-02-21T09:44:13;101291.69;;;12.48;85.88
64544;BME280;50936;51.660;5.616;2024-02-21T09:47:07;101280.66;;;12.39;87.51
64544;BME280;50936;51.660;5.616;2024-02-21T09:49:59;101277.41;;;12.33;88.02
64544;BME280;50936;51.660;5.616;2024-02-21T09:52:51;101263.53;;;12.25;88.49
64544;BME280;50936;51.660;5.616;2024-02-21T09:55:43;101265.25;;;12.26;89.11
64544;BME280;50936;51.660;5.616;2024-02-21T09:58:31;101265.06;;;12.42;88.52
64544;BME280;50936;51.660;5.616;2024-02-21T10:01:19;101240.56;;;12.44;88.43
64544;BME280;50936;51.660;5.616;2024-02-21T10:04:20;101239.91;;;12.53;88.41
64544;BME280;50936;51.660;5.616;2024-02-21T10:07:08;101234.25;;;12.56;87.94
64544;BME280;50936;51.660;5.616;2024-02-21T10:10:03;101227.53;;;12.62;87.34
64544;BME280;50936;51.660;5.616;2024-02-21T10:12:53;101215.06;;;12.59;86.77
64544;BME280;50936;51.660;5.616;2024-02-21T10:15:44;101215.81;;;12.61;86.38
64544;BME280;50936;51.660;5.616;2024-02-21T10:18:36;101188.44;;;12.53;86.67
64544;BME280;50936;51.660;5.616;2024-02-21T10:21:24;101186.78;;;12.63;85.93
64544;BME280;50936;51.660;5.616;2024-02-21T10:24:12;101177.22;;;12.70;85.30
64544;BME280;50936;51.660;5.616;2024-02-21T10:27:04;101179.78;;;12.85;84.61
64544;BME280;50936;51.660;5.616;2024-02-21T10:29:55;101171.97;;;12.93;83.14
64544;BME280;50936;51.660;5.616;2024-02-21T10:32:53;101172.72;;;12.95;82.93
64544;BME280;50936;51.660;5.616;2024-02-21T10:35:41;101176.06;;;12.99;82.67
64544;BME280;50936;51.660;5.616;2024-02-21T10:38:29;101146.09;;;13.00;81.92
64544;BME280;50936;51.660;5.616;2024-02-21T10:41:19;101163.66;;;13.07;81.20
64544;BME280;50936;51.660;5.616;2024-02-21T10:44:07;101132.22;;;13.05;81.70
64544;BME280;50936;51.660;5.616;2024-02-21T10:46:58;101111.16;;;13.08;80.95
64544;BME280;50936;51.660;5.616;2024-02-21T10:49:46;101119.34;;;13.20;80.64
64544;BME280;50936;51.660;5.616;2024-02-21T10:52:51;101072.25;;;13.21;80.71
64544;BME280;50936;51.660;5.616;2024-02-21T10:55:56;101063.25;;;13.44;79.44
64544;BME280;50936;51.660;5.616;2024-02-21T10:58:59;101055.63;;;13.61;78.64
64544;BME280;50936;51.660;5.616;2024-02-21T11:01:49;101055.38;;;13.75;77.66
64544;BME280;50936;51.660;5.616;2024-02-21T11:04:37;101059.59;;;13.79;77.26
64544;BME280;50936;51.660;5.616;2024-02-21T11:07:26;101066.00;;;13.78;76.90
64544;BME280;50936;51.660;5.616;2024-02-21T11:10:22;101085.97;;;13.77;75.92
64544;BME280;50936;51.660;5.616;2024-02-21T11:13:11;101080.06;;;13.72;75.19
64544;BME280;50936;51.660;5.616;2024-02-21T11:16:08;101081.53;;;13.65;75.48
64544;BME280;50936;51.660;5.616;2024-02-21T11:19:08;101064.97;;;13.57;75.62
64544;BME280;50936;51.660;5.616;2024-02-21T11:21:58;101069.44;;;13.58;75.32
64544;BME280;50936;51.660;5.616;2024-02-21T11:24:50;101047.69;;;13.46;75.55
64544;BME280;50936;51.660;5.616;2024-02-21T11:27:38;101053.13;;;13.46;75.32
64544;BME280;50936;51.660;5.616;2024-02-21T11:30:32;101046.69;;;13.47;76.20
64544;BME280;50936;51.660;5.616;2024-02-21T11:33:22;101031.66;;;13.55;75.44
64544;BME280;50936;51.660;5.616;2024-02-21T11:36:11;101025.28;;;13.67;75.18
64544;BME280;50936;51.660;5.616;2024-02-21T11:39:04;101017.97;;;13.56;74.85
64544;BME280;50936;51.660;5.616;2024-02-21T11:42:05;101029.97;;;13.54;75.26
64544;BME280;50936;51.660;5.616;2024-02-21T11:44:56;101028.22;;;13.53;75.32
64544;BME280;50936;51.660;5.616;2024-02-21T11:47:44;100989.25;;;13.65;75.33
64544;BME280;50936;51.660;5.616;2024-02-21T11:50:31;100990.38;;;13.74;74.36
64544;BME280;50936;51.660;5.616;2024-02-21T11:53:20;101002.69;;;13.89;73.83
64544;BME280;50936;51.660;5.616;2024-02-21T11:56:08;100998.84;;;13.92;73.73
64544;BME280;50936;51.660;5.616;2024-02-21T11:58:55;100986.66;;;13.86;73.80
64544;BME280;50936;51.660;5.616;2024-02-21T12:01:46;100972.44;;;13.94;73.57
64544;BME280;50936;51.660;5.616;2024-02-21T12:04:35;100949.88;;;13.93;73.08
64544;BME280;50936;51.660;5.616;2024-02-21T12:07:23;100930.94;;;14.03;72.91
64544;BME280;50936;51.660;5.616;2024-02-21T12:10:11;100926.63;;;14.12;72.34
64544;BME280;50936;51.660;5.616;2024-02-21T12:13:07;100914.38;;;14.17;72.24
64544;BME280;50936;51.660;5.616;2024-02-21T12:15:55;100916.56;;;14.35;72.18
64544;BME280;50936;51.660;5.616;2024-02-21T12:18:42;100905.50;;;14.48;70.59
64544;BME280;50936;51.660;5.616;2024-02-21T12:21:30;100891.78;;;14.49;70.74
64544;BME280;50936;51.660;5.616;2024-02-21T12:24:25;100889.56;;;14.54;70.25
64544;BME280;50936;51.660;5.616;2024-02-21T12:27:13;100890.31;;;14.45;70.42
64544;BME280;50936;51.660;5.616;2024-02-21T12:30:00;100873.72;;;14.59;70.29
64544;BME280;50936;51.660;5.616;2024-02-21T12:32:48;100851.00;;;14.60;69.54
64544;BME280;50936;51.660;5.616;2024-02-21T12:35:36;100851.00;;;14.60;70.24
64544;BME280;50936;51.660;5.616;2024-02-21T12:38:23;100850.72;;;14.85;70.17
64544;BME280;50936;51.660;5.616;2024-02-21T12:41:10;100849.13;;;14.82;69.20
64544;BME280;50936;51.660;5.616;2024-02-21T12:43:57;100837.38;;;14.81;68.83
64544;BME280;50936;51.660;5.616;2024-02-21T12:46:45;100816.22;;;14.85;68.61
64544;BME280;50936;51.660;5.616;2024-02-21T12:49:32;100813.31;;;14.77;68.93
64544;BME280;50936;51.660;5.616;2024-02-21T12:52:20;100801.91;;;14.83;68.87
64544;BME280;50936;51.660;5.616;2024-02-21T12:55:07;100803.72;;;14.73;68.84
64544;BME280;50936;51.660;5.616;2024-02-21T12:58:03;100781.22;;;14.71;68.55
64544;BME280;50936;51.660;5.616;2024-02-21T13:00:52;100755.50;;;14.75;68.81
64544;BME280;50936;51.660;5.616;2024-02-21T13:03:40;100755.78;;;14.72;68.99
64544;BME280;50936;51.660;5.616;2024-02-21T13:06:27;100750.66;;;14.78;69.19
64544;BME280;50936;51.660;5.616;2024-02-21T13:09:15;100735.34;;;14.77;68.14
64544;BME280;50936;51.660;5.616;2024-02-21T13:12:02;100746.34;;;14.76;68.17
64544;BME280;50936;51.660;5.616;2024-02-21T13:14:50;100744.91;;;14.72;67.76
64544;BME280;50936;51.660;5.616;2024-02-21T13:17:37;100741.19;;;14.73;67.96
64544;BME280;50936;51.660;5.616;2024-02-21T13:20:27;100732.63;;;14.77;68.15
64544;BME280;50936;51.660;5.616;2024-02-21T13:23:16;100714.03;;;14.73;67.38
64544;BME280;50936;51.660;5.616;2024-02-21T13:26:05;100715.34;;;14.57;66.81
64544;BME280;50936;51.660;5.616;2024-02-21T13:28:53;100713.88;;;14.53;67.14
64544;BME280;50936;51.660;5.616;2024-02-21T13:31:41;100708.19;;;14.56;67.63
64544;BME280;50936;51.660;5.616;2024-02-21T13:34:31;100715.25;;;14.38;67.18
64544;BME280;50936;51.660;5.616;2024-02-21T13:37:18;100703.28;;;14.50;67.71
64544;BME280;50936;51.660;5.616;2024-02-21T13:40:06;100696.13;;;14.49;67.22
64544;BME280;50936;51.660;5.616;2024-02-21T13:42:56;100692.97;;;14.44;67.80
64544;BME280;50936;51.660;5.616;2024-02-21T13:45:56;100669.13;;;14.27;68.09
64544;BME280;50936;51.660;5.616;2024-02-21T13:48:45;100683.16;;;14.32;68.25
64544;BME280;50936;51.660;5.616;2024-02-21T13:51:34;100657.44;;;14.36;67.82
64544;BME280;50936;51.660;5.616;2024-02-21T13:54:24;100664.28;;;14.30;68.37
64544;BME280;50936;51.660;5.616;2024-02-21T13:57:11;100655.53;;;14.27;68.50
64544;BME280;50936;51.660;5.616;2024-02-21T14:00:01;100637.41;;;14.06;67.48
64544;BME280;50936;51.660;5.616;2024-02-21T14:02:57;100637.53;;;14.04;68.01
64544;BME280;50936;51.660;5.616;2024-02-21T14:05:46;100631.94;;;13.96;67.75
64544;BME280;50936;51.660;5.616;2024-02-21T14:08:37;100627.38;;;13.97;67.88
64544;BME280;50936;51.660;5.616;2024-02-21T14:11:28;100613.78;;;13.97;67.55
64544;BME280;50936;51.660;5.616;2024-02-21T14:14:15;100610.22;;;13.96;67.70
64544;BME280;50936;51.660;5.616;2024-02-21T14:17:03;100609.38;;;13.96;67.90
64544;BME280;50936;51.660;5.616;2024-02-21T14:19:51;100602.72;;;14.10;67.71
64544;BME280;50936;51.660;5.616;2024-02-21T14:22:41;100615.53;;;13.98;67.00
64544;BME280;50936;51.660;5.616;2024-02-21T14:25:28;100576.41;;;13.79;67.62
64544;BME280;50936;51.660;5.616;2024-02-21T14:28:16;100556.47;;;13.69;68.14
64544;BME280;50936;51.660;5.616;2024-02-21T14:31:08;100569.06;;;13.70;68.66
64544;BME280;50936;51.660;5.616;2024-02-21T14:33:58;100549.69;;;13.84;68.66
64544;BME280;50936;51.660;5.616;2024-02-21T14:36:45;100548.28;;;13.90;68.77
64544;BME280;50936;51.660;5.616;2024-02-21T14:39:34;100535.25;;;14.05;68.65
64544;BME280;50936;51.660;5.616;2024-02-21T14:42:22;100520.66;;;14.06;68.35